createdAt,value
2023-02-01T00:01:12.302Z,97610.88
2023-02-01T00:03:38.956Z,97611.75
2023-02-01T00:06:05.765Z,97597.81
2023-02-01T00:08:32.371Z,97597.81
2023-02-01T00:11:07.849Z,97602.09
2023-02-01T00:13:38.953Z,97589.94
2023-02-01T00:16:26.567Z,97589.00
2023-02-01T00:18:57.957Z,97586.41
2023-02-01T00:21:24.473Z,97587.28
2023-02-01T00:23:50.964Z,97592.44
2023-02-01T00:26:20.903Z,97589.75
2023-02-01T00:28:47.517Z,97599.28
2023-02-01T00:31:14.584Z,97600.13
2023-02-01T00:33:41.307Z,97598.28
2023-02-01T00:36:09.454Z,97593.88
2023-02-01T00:38:38.835Z,97593.00
2023-02-01T00:41:19.718Z,97586.94
2023-02-01T00:43:46.869Z,97581.78
2023-02-01T00:46:15.318Z,97562.63
2023-02-01T00:48:41.949Z,97571.31
2023-02-01T00:51:11.251Z,97568.63
2023-02-01T00:53:38.161Z,97569.38
2023-02-01T00:56:06.147Z,97569.25
2023-02-01T00:58:33.747Z,97567.47
2023-02-01T01:01:04.920Z,97563.94
2023-02-01T01:03:34.443Z,97565.69
2023-02-01T01:06:04.223Z,97569.16
2023-02-01T01:08:31.128Z,97577.81
2023-02-01T01:10:58.148Z,97563.94
2023-02-01T01:13:24.860Z,97562.25
2023-02-01T01:15:51.431Z,97553.56
2023-02-01T01:18:17.973Z,97557.03
2023-02-01T01:20:44.540Z,97554.47
2023-02-01T01:23:11.104Z,97561.38
2023-02-01T01:25:40.754Z,97566.59
2023-02-01T01:28:08.182Z,97563.09
2023-02-01T01:30:36.059Z,97560.47
2023-02-01T01:33:03.085Z,97559.56
2023-02-01T01:35:31.829Z,97555.25
2023-02-01T01:37:59.303Z,97557.81
2023-02-01T01:40:26.605Z,97547.44
2023-02-01T01:42:55.571Z,97556.13
2023-02-01T01:45:29.579Z,97548.25
2023-02-01T01:48:00.535Z,97559.56
2023-02-01T01:50:38.267Z,97551.69
2023-02-01T01:53:08.790Z,97544.69
2023-02-01T01:55:40.304Z,97542.00
2023-02-01T01:58:11.090Z,97541.13
2023-02-01T02:00:38.323Z,97541.13
2023-02-01T02:03:12.807Z,97531.56
2023-02-01T02:05:39.574Z,97541.09
2023-02-01T02:08:06.305Z,97536.66
2023-02-01T02:11:02.208Z,97530.50
2023-02-01T02:13:36.392Z,97522.50
2023-02-01T02:16:29.494Z,97515.59
2023-02-01T02:19:01.852Z,97532.94
2023-02-01T02:21:28.342Z,97528.56
2023-02-01T02:24:21.104Z,97526.00
2023-02-01T02:27:05.834Z,97523.47
2023-02-01T02:29:35.313Z,97531.31
2023-02-01T02:32:40.779Z,97528.78
2023-02-01T02:35:48.416Z,97531.31
2023-02-01T02:38:32.964Z,97520.06
2023-02-01T02:41:07.266Z,97526.22
2023-02-01T02:44:10.751Z,97524.53
2023-02-01T02:47:05.947Z,97523.81
2023-02-01T02:50:10.257Z,97512.56
2023-02-01T02:53:02.955Z,97508.31
2023-02-01T02:55:31.625Z,97507.56
2023-02-01T02:58:17.693Z,97505.84
2023-02-01T03:01:04.096Z,97496.19
2023-02-01T03:03:49.082Z,97492.00
2023-02-01T03:06:19.601Z,97494.72
2023-02-01T03:08:47.247Z,97506.00
2023-02-01T03:11:16.181Z,97503.59
2023-02-01T03:14:03.453Z,97502.00
2023-02-01T03:16:37.755Z,97504.75
2023-02-01T03:19:18.022Z,97503.97
2023-02-01T03:21:51.554Z,97499.75
2023-02-01T03:24:34.366Z,97493.78
2023-02-01T03:27:32.757Z,97493.91
2023-02-01T03:30:06.762Z,97496.53
2023-02-01T03:32:55.612Z,97492.34
2023-02-01T03:35:29.938Z,97490.69
2023-02-01T03:38:04.868Z,97485.53
2023-02-01T03:40:36.385Z,97491.59
2023-02-01T03:43:06.058Z,97483.00
2023-02-01T03:45:41.695Z,97482.19
2023-02-01T03:48:09.993Z,97480.50
2023-02-01T03:50:39.752Z,97486.38
2023-02-01T03:53:14.395Z,97477.78
2023-02-01T03:55:42.121Z,97475.06
2023-02-01T03:58:18.610Z,97482.88
2023-02-01T04:00:51.021Z,97478.56
2023-02-01T04:03:17.591Z,97475.97
2023-02-01T04:05:44.131Z,97476.94
2023-02-01T04:08:10.664Z,97469.06
2023-02-01T04:10:37.233Z,97468.25
2023-02-01T04:13:03.731Z,97474.44
2023-02-01T04:15:30.243Z,97478.81
2023-02-01T04:17:56.789Z,97484.84
2023-02-01T04:20:23.814Z,97479.66
2023-02-01T04:22:50.503Z,97470.13
2023-02-01T04:25:18.267Z,97467.50
2023-02-01T04:27:45.096Z,97474.56
2023-02-01T04:30:13.209Z,97463.38
2023-02-01T04:32:40.417Z,97466.00
2023-02-01T04:35:08.227Z,97453.88
2023-02-01T04:37:35.542Z,97460.84
2023-02-01T04:40:03.036Z,97465.22
2023-02-01T04:42:29.571Z,97448.59
2023-02-01T04:44:56.260Z,97461.63
2023-02-01T04:47:22.747Z,97466.81
2023-02-01T04:49:49.299Z,97466.88
2023-02-01T04:52:15.819Z,97456.41
2023-02-01T04:54:42.299Z,97466.75
2023-02-01T04:57:08.951Z,97471.06
2023-02-01T04:59:36.153Z,97470.19
2023-02-01T05:02:02.648Z,97458.03
2023-02-01T05:04:29.292Z,97464.19
2023-02-01T05:06:55.873Z,97471.09
2023-02-01T05:09:22.862Z,97458.97
2023-02-01T05:12:07.923Z,97459.75
2023-02-01T05:14:34.713Z,97454.63
2023-02-01T05:17:01.215Z,97458.03
2023-02-01T05:19:27.894Z,97458.03
2023-02-01T05:21:54.439Z,97455.41
2023-02-01T05:24:21.558Z,97455.41
2023-02-01T05:26:49.472Z,97444.06
2023-02-01T05:29:17.403Z,97446.69
2023-02-01T05:31:46.816Z,97443.09
2023-02-01T05:34:13.578Z,97440.41
2023-02-01T05:36:40.296Z,97448.16
2023-02-01T05:39:06.987Z,97453.44
2023-02-01T05:41:33.613Z,97455.25
2023-02-01T05:44:00.129Z,97449.19
2023-02-01T05:46:29.394Z,97444.66
2023-02-01T05:48:55.976Z,97443.72
2023-02-01T05:51:22.505Z,97452.47
2023-02-01T05:53:49.034Z,97435.00
2023-02-01T05:56:15.671Z,97436.78
2023-02-01T05:58:42.147Z,97439.38
2023-02-01T06:01:08.882Z,97440.16
2023-02-01T06:03:35.514Z,97448.91
2023-02-01T06:06:02.501Z,97444.53
2023-02-01T06:08:29.564Z,97432.19
2023-02-01T06:11:03.728Z,97418.25
2023-02-01T06:13:32.100Z,97426.97
2023-02-01T06:16:00.091Z,97420.06
2023-02-01T06:18:26.797Z,97428.75
2023-02-01T06:20:55.386Z,97428.75
2023-02-01T06:23:24.661Z,97423.53
2023-02-01T06:26:00.413Z,97413.88
2023-02-01T06:28:26.977Z,97409.41
2023-02-01T06:30:53.514Z,97400.69
2023-02-01T06:33:20.065Z,97406.63
2023-02-01T06:35:46.610Z,97387.41
2023-02-01T06:38:13.123Z,97385.59
2023-02-01T06:40:40.563Z,97388.16
2023-02-01T06:43:07.049Z,97389.94
2023-02-01T06:45:33.603Z,97414.28
2023-02-01T06:48:01.458Z,97418.25
2023-02-01T06:50:28.444Z,97408.69
2023-02-01T06:52:54.956Z,97393.06
2023-02-01T06:55:21.482Z,97397.41
2023-02-01T06:57:47.921Z,97399.91
2023-02-01T07:00:15.005Z,97401.63
2023-02-01T07:02:41.489Z,97403.28
2023-02-01T07:05:08.391Z,97411.13
2023-02-01T07:07:34.900Z,97414.59
2023-02-01T07:10:01.462Z,97415.44
2023-02-01T07:12:27.949Z,97411.84
2023-02-01T07:14:54.472Z,97425.69
2023-02-01T07:17:20.945Z,97404.69
2023-02-01T07:19:47.445Z,97412.47
2023-02-01T07:22:13.951Z,97401.97
2023-02-01T07:24:40.475Z,97409.63
2023-02-01T07:27:06.993Z,97402.47
2023-02-01T07:29:33.532Z,97404.22
2023-02-01T07:32:01.309Z,97399.06
2023-02-01T07:34:27.992Z,97405.16
2023-02-01T07:36:54.839Z,97395.47
2023-02-01T07:39:21.368Z,97394.66
2023-02-01T07:41:47.845Z,97389.34
2023-02-01T07:44:14.367Z,97391.97
2023-02-01T07:46:41.162Z,97389.13
2023-02-01T07:49:07.720Z,97389.81
2023-02-01T07:51:34.267Z,97389.81
2023-02-01T07:54:00.783Z,97390.75
2023-02-01T07:56:27.384Z,97400.22
2023-02-01T07:58:56.941Z,97395.78
2023-02-01T08:01:25.974Z,97408.81
2023-02-01T08:03:56.513Z,97412.16
2023-02-01T08:06:24.529Z,97409.50
2023-02-01T08:08:51.988Z,97419.91
2023-02-01T08:11:20.055Z,97409.50
2023-02-01T08:13:47.144Z,97415.50
2023-02-01T08:16:15.283Z,97409.25
2023-02-01T08:18:42.657Z,97420.59
2023-02-01T08:21:12.539Z,97428.19
2023-02-01T08:23:40.453Z,97429.75
2023-02-01T08:26:18.675Z,97434.75
2023-02-01T08:28:48.999Z,97437.25
2023-02-01T08:31:20.165Z,97450.09
2023-02-01T08:33:51.133Z,97438.69
2023-02-01T08:36:17.975Z,97433.53
2023-02-01T08:38:44.744Z,97440.53
2023-02-01T08:41:14.633Z,97447.44
2023-02-01T08:43:41.906Z,97437.59
2023-02-01T08:46:09.623Z,97436.81
2023-02-01T08:48:36.754Z,97422.06
2023-02-01T08:51:05.364Z,97429.81
2023-02-01T08:53:32.427Z,97432.38
2023-02-01T08:55:59.596Z,97428.00
2023-02-01T08:58:26.229Z,97427.78
2023-02-01T09:00:52.830Z,97434.72
2023-02-01T09:03:19.593Z,97427.69
2023-02-01T09:05:49.866Z,97432.63
2023-02-01T09:08:17.275Z,97427.97
2023-02-01T09:10:44.027Z,97427.22
2023-02-01T09:13:10.779Z,97430.88
2023-02-01T09:15:38.336Z,97435.88
2023-02-01T09:18:05.131Z,97439.44
2023-02-01T09:20:31.664Z,97442.38
2023-02-01T09:22:58.340Z,97428.41
2023-02-01T09:25:25.062Z,97425.81
2023-02-01T09:27:51.812Z,97416.09
2023-02-01T09:30:18.402Z,97425.56
2023-02-01T09:32:44.949Z,97428.25
2023-02-01T09:35:11.480Z,97434.06
2023-02-01T09:37:38.546Z,97432.91
2023-02-01T09:40:05.547Z,97438.72
2023-02-01T09:42:41.169Z,97448.00
2023-02-01T09:45:32.125Z,97461.56
2023-02-01T09:48:03.521Z,97458.38
2023-02-01T09:50:39.645Z,97447.91
2023-02-01T09:53:14.146Z,97447.91
2023-02-01T09:55:51.015Z,97446.84
2023-02-01T09:58:21.342Z,97445.81
2023-02-01T10:00:57.424Z,97437.69
2023-02-01T10:03:36.684Z,97435.69
2023-02-01T10:06:34.141Z,97450.81
2023-02-01T10:09:48.826Z,97449.31
2023-02-01T10:12:32.563Z,97450.31
2023-02-01T10:15:24.085Z,97463.13
2023-02-01T10:18:34.931Z,97469.25
2023-02-01T10:21:16.709Z,97456.97
2023-02-01T10:23:52.016Z,97429.63
2023-02-01T10:26:24.368Z,97433.88
2023-02-01T10:29:01.492Z,97448.09
2023-02-01T10:31:32.956Z,97446.69
2023-02-01T10:34:01.603Z,97456.34
2023-02-01T10:36:51.364Z,97460.50
2023-02-01T10:39:18.116Z,97465.41
2023-02-01T10:41:44.687Z,97462.72
2023-02-01T10:44:21.457Z,97468.59
2023-02-01T10:46:48.060Z,97458.28
2023-02-01T10:49:37.954Z,97455.75
2023-02-01T10:52:15.630Z,97452.25
2023-02-01T10:54:42.977Z,97456.22
2023-02-01T10:57:30.632Z,97452.06
2023-02-01T10:59:57.156Z,97444.13
2023-02-01T11:02:32.112Z,97445.84
2023-02-01T11:05:10.856Z,97454.44
2023-02-01T11:07:38.477Z,97448.22
2023-02-01T11:10:05.628Z,97465.56
2023-02-01T11:12:38.603Z,97461.66
2023-02-01T11:15:19.019Z,97458.63
2023-02-01T11:17:48.425Z,97448.38
2023-02-01T11:20:21.601Z,97448.53
2023-02-01T11:22:57.840Z,97454.53
2023-02-01T11:25:25.961Z,97458.91
2023-02-01T11:27:55.875Z,97470.13
2023-02-01T11:30:35.692Z,97451.25
2023-02-01T11:33:06.531Z,97456.41
2023-02-01T11:35:35.696Z,97463.16
2023-02-01T11:38:11.643Z,97452.97
2023-02-01T11:40:39.511Z,97439.19
2023-02-01T11:43:14.030Z,97451.97
2023-02-01T11:45:40.616Z,97466.13
2023-02-01T11:48:26.250Z,97450.91
2023-02-01T11:50:59.452Z,97462.19
2023-02-01T11:54:00.143Z,97471.28
2023-02-01T11:56:35.843Z,97448.59
2023-02-01T11:59:23.118Z,97453.81
2023-02-01T12:02:23.809Z,97455.16
2023-02-01T12:05:06.801Z,97444.56
2023-02-01T12:07:53.131Z,97441.78
2023-02-01T12:10:44.249Z,97442.66
2023-02-01T12:14:08.232Z,97425.34
2023-02-01T12:16:52.917Z,97440.44
2023-02-01T12:19:44.301Z,97439.41
2023-02-01T12:22:43.410Z,97438.53
2023-02-01T12:25:12.458Z,97435.78
2023-02-01T12:27:47.950Z,97427.38
2023-02-01T12:30:46.656Z,97417.69
2023-02-01T12:33:36.401Z,97407.13
2023-02-01T12:36:09.177Z,97399.09
2023-02-01T12:38:50.871Z,97404.31
2023-02-01T12:41:42.370Z,97401.06
2023-02-01T12:44:28.316Z,97396.91
2023-02-01T12:47:34.134Z,97397.91
2023-02-01T12:50:06.427Z,97403.13
2023-02-01T12:52:45.845Z,97399.06
2023-02-01T12:55:46.809Z,97393.47
2023-02-01T12:58:18.882Z,97399.31
2023-02-01T13:01:01.695Z,97392.47
2023-02-01T13:03:49.975Z,97386.31
2023-02-01T13:06:30.876Z,97399.53
2023-02-01T13:09:18.230Z,97399.03
2023-02-01T13:11:47.333Z,97407.13
2023-02-01T13:14:31.932Z,97410.50
2023-02-01T13:17:10.908Z,97401.25
2023-02-01T13:19:47.889Z,97402.56
2023-02-01T13:22:22.245Z,97397.91
2023-02-01T13:25:23.047Z,97403.38
2023-02-01T13:27:50.337Z,97411.41
2023-02-01T13:30:27.986Z,97410.41
2023-02-01T13:33:52.814Z,97397.84
2023-02-01T13:36:37.677Z,97407.38
2023-02-01T13:39:19.364Z,97402.16
2023-02-01T13:42:02.151Z,97409.28
2023-02-01T13:44:38.809Z,97413.59
2023-02-01T13:47:33.864Z,97422.50
2023-02-01T13:50:24.609Z,97421.72
2023-02-01T13:52:55.924Z,97418.13
2023-02-01T13:55:22.862Z,97413.03
2023-02-01T13:57:53.214Z,97426.03
2023-02-01T14:00:31.431Z,97416.38
2023-02-01T14:03:04.185Z,97418.19
2023-02-01T14:05:30.673Z,97419.25
2023-02-01T14:08:03.027Z,97421.28
2023-02-01T14:10:55.135Z,97418.81
2023-02-01T14:13:42.067Z,97430.38
2023-02-01T14:16:17.688Z,97431.59
2023-02-01T14:18:46.636Z,97430.59
2023-02-01T14:21:22.848Z,97424.81
2023-02-01T14:24:15.993Z,97428.31
2023-02-01T14:26:46.543Z,97415.38
2023-02-01T14:29:27.793Z,97421.53
2023-02-01T14:32:06.848Z,97412.75
2023-02-01T14:34:48.671Z,97415.53
2023-02-01T14:37:18.024Z,97420.81
2023-02-01T14:39:47.627Z,97406.97
2023-02-01T14:42:30.891Z,97412.16
2023-02-01T14:45:23.897Z,97419.97
2023-02-01T14:47:53.625Z,97427.75
2023-02-01T14:50:38.505Z,97418.34
2023-02-01T14:53:10.965Z,97427.84
2023-02-01T14:56:05.234Z,97427.16
2023-02-01T14:58:49.906Z,97426.44
2023-02-01T15:01:22.462Z,97438.59
2023-02-01T15:03:58.356Z,97430.69
2023-02-01T15:06:36.987Z,97430.88
2023-02-01T15:09:17.593Z,97427.50
2023-02-01T15:12:05.767Z,97417.03
2023-02-01T15:14:35.282Z,97431.91
2023-02-01T15:17:02.454Z,97426.75
2023-02-01T15:19:31.562Z,97418.94
2023-02-01T15:21:59.243Z,97415.53
2023-02-01T15:24:28.448Z,97415.59
2023-02-01T15:26:56.792Z,97434.84
2023-02-01T15:29:28.579Z,97419.25
2023-02-01T15:31:55.848Z,97424.63
2023-02-01T15:34:22.628Z,97428.97
2023-02-01T15:37:02.056Z,97431.66
2023-02-01T15:39:31.640Z,97418.75
2023-02-01T15:42:05.495Z,97423.91
2023-02-01T15:44:43.630Z,97430.97
2023-02-01T15:47:18.723Z,97431.06
2023-02-01T15:49:48.518Z,97426.06
2023-02-01T15:52:23.403Z,97416.53
2023-02-01T15:54:55.041Z,97419.28
2023-02-01T15:57:31.422Z,97419.44
2023-02-01T16:00:01.862Z,97419.44
2023-02-01T16:02:44.743Z,97426.44
2023-02-01T16:05:38.453Z,97430.88
2023-02-01T16:08:21.447Z,97436.16
2023-02-01T16:10:49.605Z,97425.72
2023-02-01T16:13:17.659Z,97431.84
2023-02-01T16:15:44.924Z,97424.16
2023-02-01T16:18:17.685Z,97428.50
2023-02-01T16:20:45.582Z,97430.34
2023-02-01T16:23:12.111Z,97422.63
2023-02-01T16:25:40.216Z,97424.47
2023-02-01T16:28:07.531Z,97426.22
2023-02-01T16:30:34.416Z,97418.56
2023-02-01T16:33:03.624Z,97429.91
2023-02-01T16:35:38.111Z,97426.56
2023-02-01T16:38:15.256Z,97426.56
2023-02-01T16:40:43.085Z,97427.63
2023-02-01T16:43:16.978Z,97427.63
2023-02-01T16:45:48.729Z,97436.38
2023-02-01T16:48:26.619Z,97438.13
2023-02-01T16:51:03.135Z,97433.75
2023-02-01T16:53:34.567Z,97442.44
2023-02-01T16:56:13.434Z,97449.41
2023-02-01T16:58:42.194Z,97438.06
2023-02-01T17:01:08.914Z,97437.22
2023-02-01T17:03:35.622Z,97445.94
2023-02-01T17:06:02.680Z,97438.06
2023-02-01T17:08:38.742Z,97444.97
2023-02-01T17:11:06.964Z,97435.41
2023-02-01T17:13:34.260Z,97431.94
2023-02-01T17:16:04.694Z,97425.06
2023-02-01T17:18:35.341Z,97425.13
2023-02-01T17:21:03.335Z,97430.34
2023-02-01T17:23:30.927Z,97434.59
2023-02-01T17:25:58.112Z,97432.00
2023-02-01T17:28:25.313Z,97438.06
2023-02-01T17:30:51.992Z,97429.31
2023-02-01T17:33:27.570Z,97453.53
2023-02-01T17:35:56.228Z,97440.56
2023-02-01T17:38:24.652Z,97439.75
2023-02-01T17:40:51.698Z,97440.66
2023-02-01T17:43:24.013Z,97437.06
2023-02-01T17:46:01.771Z,97434.41
2023-02-01T17:48:29.356Z,97438.78
2023-02-01T17:50:58.806Z,97438.00
2023-02-01T17:53:29.734Z,97431.03
2023-02-01T17:55:59.919Z,97433.69
2023-02-01T17:58:26.768Z,97435.19
2023-02-01T18:00:54.422Z,97441.41
2023-02-01T18:03:26.477Z,97451.84
2023-02-01T18:05:55.151Z,97451.00
2023-02-01T18:08:23.481Z,97438.00
2023-02-01T18:10:52.326Z,97431.03
2023-02-01T18:13:18.872Z,97442.28
2023-02-01T18:15:45.378Z,97437.94
2023-02-01T18:18:12.040Z,97442.22
2023-02-01T18:20:43.341Z,97432.72
2023-02-01T18:23:19.242Z,97431.75
2023-02-01T18:25:47.217Z,97430.06
2023-02-01T18:28:16.825Z,97435.19
2023-02-01T18:30:46.316Z,97422.16
2023-02-01T18:33:14.693Z,97426.41
2023-02-01T18:35:41.501Z,97424.47
2023-02-01T18:38:08.533Z,97414.78
2023-02-01T18:40:42.760Z,97413.81
2023-02-01T18:43:12.626Z,97412.91
2023-02-01T18:45:41.270Z,97420.66
2023-02-01T18:48:10.208Z,97414.38
2023-02-01T18:50:39.743Z,97417.03
2023-02-01T18:53:11.858Z,97407.56
2023-02-01T18:55:38.359Z,97396.34
2023-02-01T18:58:08.711Z,97392.91
2023-02-01T19:00:35.988Z,97389.25
2023-02-01T19:03:02.563Z,97394.31
2023-02-01T19:05:31.098Z,97408.28
2023-02-01T19:07:57.585Z,97394.38
2023-02-01T19:10:24.877Z,97409.06
2023-02-01T19:12:52.590Z,97402.16
2023-02-01T19:15:19.377Z,97403.84
2023-02-01T19:17:48.690Z,97405.59
2023-02-01T19:20:18.460Z,97405.59
2023-02-01T19:22:46.641Z,97410.78
2023-02-01T19:25:17.254Z,97414.28
2023-02-01T19:27:43.810Z,97417.81
2023-02-01T19:30:12.850Z,97421.22
2023-02-01T19:32:40.137Z,97405.50
2023-02-01T19:35:08.004Z,97420.19
2023-02-01T19:37:34.694Z,97417.63
2023-02-01T19:40:01.263Z,97428.91
2023-02-01T19:42:28.883Z,97417.63
2023-02-01T19:44:55.476Z,97418.53
2023-02-01T19:47:21.975Z,97428.19
2023-02-01T19:49:48.578Z,97437.72
2023-02-01T19:52:15.139Z,97433.22
2023-02-01T19:54:41.639Z,97420.94
2023-02-01T19:57:08.392Z,97433.09
2023-02-01T19:59:34.927Z,97423.47
2023-02-01T20:02:00.594Z,97434.00
2023-02-01T20:04:27.167Z,97418.25
2023-02-01T20:06:54.941Z,97419.13
2023-02-01T20:09:30.395Z,97423.31
2023-02-01T20:11:57.041Z,97421.44
2023-02-01T20:14:26.066Z,97413.59
2023-02-01T20:16:52.864Z,97421.44
2023-02-01T20:19:19.692Z,97427.47
2023-02-01T20:21:46.756Z,97417.25
2023-02-01T20:24:16.898Z,97407.63
2023-02-01T20:26:44.617Z,97404.97
2023-02-01T20:29:13.456Z,97415.88
2023-02-01T20:31:40.293Z,97415.00
2023-02-01T20:34:08.137Z,97412.53
2023-02-01T20:36:34.621Z,97408.09
2023-02-01T20:39:01.855Z,97408.09
2023-02-01T20:41:28.785Z,97404.63
2023-02-01T20:43:55.368Z,97400.31
2023-02-01T20:46:22.377Z,97408.16
2023-02-01T20:48:50.526Z,97412.47
2023-02-01T20:51:19.617Z,97403.81
2023-02-01T20:53:48.538Z,97387.34
2023-02-01T20:56:16.017Z,97382.84
2023-02-01T20:58:43.553Z,97382.13
2023-02-01T21:01:11.083Z,97382.25
2023-02-01T21:03:38.562Z,97388.19
2023-02-01T21:06:06.279Z,97379.50
2023-02-01T21:08:33.132Z,97376.97
2023-02-01T21:11:04.072Z,97374.44
2023-02-01T21:13:32.505Z,97362.94
2023-02-01T21:15:59.111Z,97369.91
2023-02-01T21:18:25.762Z,97376.91
2023-02-01T21:20:52.554Z,97366.31
2023-02-01T21:23:19.375Z,97370.69
2023-02-01T21:25:46.688Z,97374.94
2023-02-01T21:28:13.915Z,97380.22
2023-02-01T21:30:41.275Z,97384.59
2023-02-01T21:33:07.980Z,97382.91
2023-02-01T21:35:34.504Z,97390.84
2023-02-01T21:38:00.987Z,97396.41
2023-02-01T21:40:27.499Z,97396.16
2023-02-01T21:42:54.045Z,97397.84
2023-02-01T21:45:20.611Z,97384.59
2023-02-01T21:47:48.872Z,97380.75
2023-02-01T21:50:18.592Z,97394.28
2023-02-01T21:52:45.642Z,97384.34
2023-02-01T21:55:13.683Z,97393.22
2023-02-01T21:57:40.720Z,97391.66
2023-02-01T22:00:08.837Z,97380.38
2023-02-01T22:02:36.064Z,97386.50
2023-02-01T22:05:05.332Z,97387.31
2023-02-01T22:07:34.011Z,97382.88
2023-02-01T22:10:01.810Z,97377.66
2023-02-01T22:12:28.372Z,97394.09
2023-02-01T22:14:54.915Z,97380.09
2023-02-01T22:17:21.533Z,97370.44
2023-02-01T22:19:48.125Z,97379.81
2023-02-01T22:22:14.702Z,97379.78
2023-02-01T22:24:41.213Z,97392.75
2023-02-01T22:27:14.418Z,97372.81
2023-02-01T22:29:42.250Z,97390.25
2023-02-01T22:32:08.992Z,97388.53
2023-02-01T22:34:35.548Z,97386.66
2023-02-01T22:37:03.061Z,97383.19
2023-02-01T22:39:29.647Z,97385.03
2023-02-01T22:41:56.137Z,97378.09
2023-02-01T22:44:23.800Z,97380.69
2023-02-01T22:46:50.628Z,97373.66
2023-02-01T22:49:17.225Z,97377.06
2023-02-01T22:51:43.972Z,97373.53
2023-02-01T22:54:17.839Z,97369.09
2023-02-01T22:56:44.451Z,97362.00
2023-02-01T22:59:12.792Z,97368.94
2023-02-01T23:01:39.335Z,97368.06
2023-02-01T23:04:09.621Z,97368.13
2023-02-01T23:06:36.196Z,97374.16
2023-02-01T23:09:13.686Z,97367.09
2023-02-01T23:11:40.299Z,97373.03
2023-02-01T23:14:07.278Z,97371.25
2023-02-01T23:16:34.268Z,97365.06
2023-02-01T23:19:01.178Z,97371.84
2023-02-01T23:21:28.372Z,97377.88
2023-02-01T23:23:57.623Z,97370.13
2023-02-01T23:26:26.696Z,97375.28
2023-02-01T23:28:55.218Z,97366.63
2023-02-01T23:31:23.897Z,97361.47
2023-02-01T23:33:54.669Z,97365.88
2023-02-01T23:36:22.756Z,97366.78
2023-02-01T23:38:49.802Z,97368.63
2023-02-01T23:41:18.832Z,97372.06
2023-02-01T23:44:01.118Z,97372.13
2023-02-01T23:46:41.191Z,97376.75
2023-02-01T23:49:08.504Z,97382.13
2023-02-01T23:51:36.284Z,97388.25
2023-02-01T23:54:03.844Z,97368.56
2023-02-01T23:56:36.615Z,97372.28
2023-02-01T23:59:05.716Z,97360.22
